Terminal Aerodrome Forecast
Issued by NWS Detroit/Pontiac, MI

Home | Current Version | Previous Version | Text Only | Print | Product List | Glossary On
Versions: 1 2 3 4 5 6 7 8 9 10 11 12 13 14 15 16 17 18 19 20
000
FTUS43 KDTX 280525
TAFDTW
TAF
KDTW 280525Z 2806/2912 27012G20KT P6SM OVC020
     FM281400 29008KT P6SM SCT020 BKN200
     FM290000 29005KT P6SM FEW020
     FM290800 33006KT P6SM BKN150=

USA.gov is the U.S. government's official web portal to all federal, state and local government web resources and services.